Flight Track Log - Related Links

Times and Time Zones

All times are in EDT time to prevent confusion due to time zone crossing. See the UAL1017 flight status page for this flight to view local times or setup timezone preferences in your user account.

Time Position Orientation Groundspeed Altitude Reporting Facility
EDT Latitude Longitude Course Direction KTS MPH feet Rate Location/Type
Fri 09:50:53 PM 39.9333 -104.6833 351° North 232 267 8,000  Level Denver TRACON
Fri 09:51:47 PM 40.0167 -104.6667 North 288 331 10,000 2,700 Climbing Denver TRACON
Fri 09:52:00 PM 40.1835 -104.8876 349° North  Level Estimated
Fri 09:52:53 PM 40.1000 -104.6667 360° North 294 338 13,400  Level Denver TRACON
Fri 09:53:00 PM 40.2907 -104.9595 343° North  Level Estimated
Fri 09:54:00 PM 40.3979 -105.0316 346° North  Level Estimated
Fri 09:54:15 PM 40.2225 -104.7022 348° North 335 386 17,800  Level Denver Center
Fri 09:55:00 PM 40.5050 -105.1040 346° North  Level Estimated
Fri 09:55:16 PM 40.3206 -104.7275 349° North 353 406 20,700  Level Denver Center
Fri 09:56:00 PM 40.6120 -105.1766 351° North  Level Estimated
Fri 09:56:18 PM 40.4047 -104.7514 348° North 375 432 22,800  Level Denver Center
Fri 09:57:32 PM 40.5017 -104.8492 323° Northwest 381 438 25,600 2,356 Climbing Denver Center
Fri 09:58:33 PM 40.6050 -104.9556 322° Northwest 393 452 28,100 2,195 Climbing Denver Center
Fri 09:59:35 PM 40.6956 -105.0506 322° Northwest 415 478 30,100 1,839 Climbing Denver Center
Fri 10:00:37 PM 40.7867 -105.1425 323° Northwest 412 474 31,900 1,707 Climbing Denver Center
Fri 10:01:38 PM 40.9014 -105.2631 322° Northwest 432 497 33,600 1,426 Climbing Denver Center
Fri 10:02:39 PM 40.9803 -105.3456 322° Northwest 444 511 34,800 1,317 Climbing Denver Center
Fri 10:03:41 PM 41.0967 -105.4672 322° Northwest 458 527 36,300 1,355 Climbing Denver Center
Fri 10:04:43 PM 41.2122 -105.5889 322° Northwest 468 539 37,600 1,306 Climbing Denver Center
Fri 10:05:45 PM 41.3122 -105.6961 321° Northwest 476 548 39,000 1,171 Climbing Denver Center
Fri 10:06:46 PM 41.4219 -105.7797 330° Northwest 476 548 40,000 488 Climbing Denver Center
Fri 10:07:48 PM 41.5572 -105.8717 333° Northwest 483 556 40,000  Level Denver Center
Fri 10:08:49 PM 41.6811 -105.9569 333° Northwest 510 587 40,000  Level Denver Center
Fri 10:09:51 PM 41.8206 -106.0517 333° Northwest 508 585 40,000  Level Denver Center
Fri 10:10:52 PM 41.9178 -106.1158 334° Northwest 498 573 40,000  Level Denver Center
Fri 10:11:54 PM 42.0583 -106.2136 333° Northwest 503 579 40,000  Level Denver Center
Fri 10:12:56 PM 42.1956 -106.3097 333° Northwest 499 574 40,000  Level Denver Center
Fri 10:13:57 PM 42.3169 -106.3933 333° Northwest 507 583 40,000  Level Denver Center
Fri 10:14:59 PM 42.4550 -106.4922 332° Northwest 503 579 40,000  Level Denver Center
Fri 10:16:00 PM 42.5750 -106.5758 333° Northwest 503 579 40,000  Level Denver Center
Fri 10:17:02 PM 42.6972 -106.6597 333° Northwest 511 588 40,000  Level Denver Center
Fri 10:18:03 PM 42.8336 -106.7581 332° Northwest 501 577 40,000  Level Denver Center
Fri 10:19:05 PM 42.9519 -106.8431 332° Northwest 501 577 40,000  Level Denver Center
Fri 10:19:39 PM 43.0308 -106.9008 332° Northwest 500 575 40,000  Level Salt Lake Center
Fri 10:20:40 PM 43.1439 -106.9814 333° Northwest 499 574 40,000  Level Salt Lake Center
Fri 10:21:42 PM 43.2661 -107.0700 332° Northwest 498 573 40,000  Level Salt Lake Center
Fri 10:22:43 PM 43.4122 -107.1769 332° Northwest 496 571 40,000  Level Salt Lake Center
Fri 10:23:45 PM 43.5350 -107.2669 332° Northwest 498 573 40,000  Level Salt Lake Center
Fri 10:24:47 PM 43.6575 -107.3544 333° Northwest 496 571 40,000  Level Salt Lake Center
Fri 10:25:48 PM 43.7786 -107.4472 331° Northwest 496 571 40,000  Level Salt Lake Center
Fri 10:26:50 PM 43.8989 -107.5369 332° Northwest 494 568 40,000  Level Salt Lake Center
Fri 10:27:51 PM 44.0219 -107.6269 332° Northwest 498 573 40,000  Level Salt Lake Center
Fri 10:28:53 PM 44.1431 -107.7181 332° Northwest 496 571 40,000  Level Salt Lake Center
Fri 10:29:54 PM 44.2647 -107.8072 332° Northwest 494 568 40,000  Level Salt Lake Center
Fri 10:30:56 PM 44.4086 -107.9156 332° Northwest 491 565 40,000  Level Salt Lake Center
Fri 10:31:57 PM 44.5294 -108.0083 331° Northwest 492 566 40,000  Level Salt Lake Center
Fri 10:32:59 PM 44.6503 -108.1022 331° Northwest 490 564 40,000  Level Salt Lake Center
Fri 10:34:01 PM 44.7736 -108.1972 331° Northwest 493 567 40,000  Level Salt Lake Center
Fri 10:35:02 PM 44.8975 -108.2897 332° Northwest 496 571 40,000  Level Salt Lake Center
Fri 10:36:04 PM 45.0197 -108.3822 332° Northwest 496 571 40,000  Level Salt Lake Center
Fri 10:37:05 PM 45.1378 -108.4747 331° Northwest 488 562 40,000  Level Salt Lake Center
Fri 10:38:07 PM 45.2569 -108.5686 331° Northwest 489 563 40,000  Level Salt Lake Center
Fri 10:39:08 PM 45.3769 -108.6617 331° Northwest 492 566 40,000  Level Salt Lake Center
Fri 10:40:10 PM 45.4958 -108.7567 331° Northwest 491 565 40,000  Level Salt Lake Center
Fri 10:41:11 PM 45.6156 -108.8511 331° Northwest 493 567 40,000  Level Salt Lake Center
Fri 10:42:13 PM 45.7592 -108.9664 331° Northwest 494 568 40,000  Level Salt Lake Center
Fri 10:43:15 PM 45.8792 -109.0611 331° Northwest 493 567 40,000  Level Salt Lake Center
Fri 10:44:16 PM 45.9983 -109.1556 331° Northwest 490 564 40,000  Level Salt Lake Center
Fri 10:45:18 PM 46.1172 -109.2503 331° Northwest 488 562 40,000  Level Salt Lake Center
Fri 10:46:19 PM 46.2358 -109.3461 331° Northwest 490 564 40,000  Level Salt Lake Center
Fri 10:47:20 PM 46.3544 -109.4431 331° Northwest 492 566 40,000  Level Salt Lake Center
Fri 10:48:22 PM 46.4708 -109.5408 330° Northwest 485 558 40,000  Level Salt Lake Center
Fri 10:49:23 PM 46.5889 -109.6392 330° Northwest 489 563 40,000  Level Salt Lake Center
Fri 10:50:25 PM 46.7267 -109.7522 331° Northwest 491 565 40,000  Level Salt Lake Center
Fri 10:51:26 PM 46.8456 -109.8478 331° Northwest 490 564 40,000 -49 Level Salt Lake Center
Fri 10:52:28 PM 46.9622 -109.9461 330° Northwest 488 562 39,900  Descending Salt Lake Center
Fri 10:53:29 PM 47.0775 -110.0444 330° Northwest 483 556 40,000  Climbing Salt Lake Center
Fri 10:54:31 PM 47.1919 -110.1425 330° Northwest 481 554 39,900  Descending Salt Lake Center
Fri 10:55:32 PM 47.3047 -110.2400 330° Northwest 472 543 40,000 49 Climbing Salt Lake Center
Fri 10:56:33 PM 47.4194 -110.3364 330° Northwest 476 548 40,000  Level Salt Lake Center
Fri 10:57:35 PM 47.5544 -110.4525 330° Northwest 473 544 40,000 -49 Level Salt Lake Center
Fri 10:58:36 PM 47.6694 -110.5494 330° Northwest 478 550 39,900 -49 Descending Salt Lake Center
Fri 10:59:38 PM 47.7819 -110.6475 330° Northwest 477 549 39,900 49 Level Salt Lake Center
Fri 11:00:39 PM 47.8933 -110.7461 329° Northwest 473 544 40,000  Climbing Salt Lake Center
Fri 11:01:40 PM 48.0061 -110.8453 330° Northwest 474 545 39,900 -49 Descending Salt Lake Center
Fri 11:02:42 PM 48.1181 -110.9444 329° Northwest 473 544 39,900 49 Level Salt Lake Center
Fri 11:03:43 PM 48.2308 -111.0450 329° Northwest 474 545 40,000 49 Climbing Salt Lake Center
Fri 11:04:45 PM 48.3656 -111.1656 329° Northwest 474 545 40,000  Level Salt Lake Center
Fri 11:05:46 PM 48.4778 -111.2658 329° Northwest 472 543 40,000  Level Salt Lake Center
Fri 11:06:47 PM 48.5911 -111.3675 329° Northwest 475 547 40,000  Level Salt Lake Center
Fri 11:07:49 PM 48.7031 -111.4692 329° Northwest 473 544 40,000  Level Salt Lake Center
Fri 11:08:50 PM 48.8142 -111.5708 329° Northwest 471 542 40,000  Level Salt Lake Center
Fri 11:09:51 PM 48.9267 -111.6725 329° Northwest 471 542 40,000 -49 Level Salt Lake Center
Fri 11:10:52 PM 49.0378 -111.7756 329° Northwest 470 541 39,900  Descending Salt Lake Center
Fri 11:11:54 PM 49.1472 -111.8781 329° Northwest 466 536 40,000 43 Climbing Salt Lake Center
Fri 11:13:11 PM 49.2667 -112.0333 315° West 460 529 40,000  Level Edmonton Center
Fri 11:14:00 PM 49.3375 -112.0589 328° Northwest  Level FlightAware Approximate
Fri 11:14:11 PM 49.3833 -112.1333 331° Northwest 460 529 40,000  Level Edmonton Center
Fri 11:15:11 PM 49.5000 -112.2500 327° Northwest 460 529 40,000 -50 Level Edmonton Center
Fri 11:16:11 PM 49.6000 -112.3500 327° Northwest 460 529 39,900 -1,200 Descending Edmonton Center
Fri 11:17:11 PM 49.7000 -112.4500 327° Northwest 440 506 37,600 -2,650 Descending Edmonton Center
Fri 11:18:11 PM 49.8167 -112.5500 331° Northwest 440 506 34,600 -3,050 Descending Edmonton Center
Fri 11:19:11 PM 49.9167 -112.6667 323° Northwest 450 518 31,500 -2,850 Descending Edmonton Center
Fri 11:20:11 PM 50.0167 -112.7667 327° Northwest 440 506 28,900 -2,600 Descending Edmonton Center
Fri 11:21:00 PM 50.0728 -112.7569 328° Northwest  Level FlightAware Approximate
Fri 11:21:11 PM 50.1333 -112.8667 331° Northwest 420 483 26,300  Level Edmonton Center
Fri 11:22:00 PM 50.1807 -112.8484 325° Northwest  Level FlightAware Approximate
Fri 11:22:11 PM 50.2167 -112.9500 327° Northwest 410 472 23,800  Level Edmonton Center
Fri 11:23:00 PM 50.2821 -112.9581 325° Northwest  Level FlightAware Approximate
Fri 11:23:11 PM 50.3167 -113.0500 327° Northwest 390 449 21,400  Level Edmonton Center
Fri 11:24:00 PM 50.3842 -113.0661 330° Northwest  Level FlightAware Approximate
Fri 11:24:11 PM 50.4000 -113.1167 333° Northwest 370 426 19,200  Level Edmonton Center
Fri 11:25:00 PM 50.4905 -113.1640 330° Northwest  Level FlightAware Approximate
Fri 11:25:11 PM 50.4667 -113.1833 328° Northwest 360 414 17,300  Level Edmonton Center
Fri 11:26:00 PM 50.5958 -113.2645 324° Northwest  Level FlightAware Approximate
Fri 11:26:11 PM 50.5667 -113.2833 328° Northwest 340 391 15,000  Level Edmonton Center
Fri 11:27:00 PM 50.6946 -113.3807 322° Northwest  Level FlightAware Approximate
Fri 11:27:11 PM 50.6333 -113.3500 328° Northwest 320 368 14,200  Level Edmonton Center
Fri 11:28:00 PM 50.7871 -113.5090 315° West  Level FlightAware Approximate
Fri 11:28:11 PM 50.6833 -113.4667 304° West 300 345 12,600  Level Edmonton Center
Fri 11:29:00 PM 50.8738 -113.6478 315° West  Level FlightAware Approximate
Fri 11:29:11 PM 50.7333 -113.5833 304° West 290 334 10,900  Level Edmonton Center
Fri 11:30:11 PM 50.7500 -113.7000 283° West 290 334 9,300 -1,150 Descending Edmonton Center
Fri 11:31:11 PM 50.8000 -113.7833 314° West 270 311 8,600 -600 Descending Edmonton Center
Fri 11:32:11 PM 50.8333 -113.8667 302° West 230 265 8,100 -800 Descending Edmonton Center
Fri 11:33:11 PM 50.8500 -113.9667 285° West 200 230 7,000 -750 Descending Edmonton Center
Fri 11:34:11 PM 50.8833 -114.0500 302° West 190 219 6,600 -667 Descending Edmonton Center
Fri 11:36:11 PM 50.9833 -114.0333 North 170 196 5,000 -767 Descending Edmonton Center
Fri 11:37:11 PM 51.0333 -114.0500 348° North 130 150 4,300 -700 Descending Edmonton Center
Fri 11:38:11 PM 51.0667 -114.0500 360° North 130 150 3,600 -700 Descending Edmonton Center

Login

Don't have an account? Register now (free) for customized features, flight alerts, and more!